Lone Grove, OK (73443)

1:22 AM CDT on August 29, 2015 (GMT -0500)
Carter County Dist 3 | | Change Station
CLOSE
Current Station
Personal Weather Station
Location: Lone Grove, OK
Elevation: 927 ft
Nearby Weather Stations

Elev 927 ft 34.17 °N, 97.28 °W | Updated 3 minutes ago

Mostly Cloudy
Mostly Cloudy
80.7 °F
Feels Like 84 °F
N
8.0
Wind Variable Wind from SE
Gusts 10.0 mph

Today
High -- | Low -- °F
--% Chance of Precip.
Yesterday
High -- | Low -- °F
Precip. -- in
7:00 AM 7:59 PM
Full, 100% visible
Pressure 29.97 in
Visibility 10.0 miles
Clouds Scattered Clouds 11000 ft
Heat Index 84 °F
Dew Point 68 °F
Humidity 66%
Rainfall 0.00 in
Snow Depth Not available.
UV 0 out of 12
Pollen 8.90 out of 12
Air Quality Not available.
Flu Activity Not available.
METAR K1F0 290610Z AUTO 17004KT 10SM SCT110 27/17 A2997 RMK AO2
Pressure 29.97 in
Visibility 10.0 miles
Clouds Scattered Clouds 11000 ft
Heat Index 84 °F
Dew Point 68 °F
Humidity 66%
Rainfall 0.00 in
Snow Depth Not available.
UV 0 out of 12
Pollen 8.90 out of 12
Air Quality Not available.
Flu Activity Not available.
METAR K1F0 290610Z AUTO 17004KT 10SM SCT110 27/17 A2997 RMK AO2

10-Day Weather Forecast

×

Almanac

Astronomy

Aug. 29, 2015 Rise Set
Actual Time
Civil Twilight
Nautical Twilight
Astronomical Twilight
Moon
Length of Visible Light
Length of Day
Tomorrow will be .
, % of the Moon is Illuminated

Today's Extremes

State Highs State Lows

Community

WunderPhotos

Upload Photos

1,850,622 photos uploaded!

WunderBlogs® & News

Nearby

Air Quality

  Air Quality AQ Index Pollutant
Not available.

Snow Depth

Station Depth Elevation

Earthquake Activity

City Distance Mag. Time & Date
Minimum magnitude displayed is 2.5.

Coastal Water Temperatures

Place Temperature

Stations

Nearby Weather Stations

Station Location Temp. Windchill Dew Point Humidity Wind Precip. Elev Updated Type